sensor_id;sensor_type;location;lat;lon;timestamp;pressure;altitude;pressure_sealevel;temperature;humidity
11395;BME280;5753;54.402;10.220;2023-01-31T00:01:18;101482.50;;;10.19;55.39
11395;BME280;5753;54.402;10.220;2023-01-31T00:03:45;101489.34;;;9.88;56.44
11395;BME280;5753;54.402;10.220;2023-01-31T00:08:49;101488.75;;;9.68;56.51
11395;BME280;5753;54.402;10.220;2023-01-31T00:11:18;101486.69;;;10.45;54.99
11395;BME280;5753;54.402;10.220;2023-01-31T00:13:45;101477.59;;;11.28;53.03
11395;BME280;5753;54.402;10.220;2023-01-31T00:16:13;101476.13;;;10.36;54.06
11395;BME280;5753;54.402;10.220;2023-01-31T00:18:40;101478.16;;;10.81;53.39
11395;BME280;5753;54.402;10.220;2023-01-31T00:21:10;101481.16;;;11.73;51.91
11395;BME280;5753;54.402;10.220;2023-01-31T00:23:38;101486.72;;;10.80;53.34
11395;BME280;5753;54.402;10.220;2023-01-31T00:26:15;101484.94;;;9.84;56.40
11395;BME280;5753;54.402;10.220;2023-01-31T00:28:43;101488.47;;;9.88;55.38
11395;BME280;5753;54.402;10.220;2023-01-31T00:31:11;101487.88;;;10.91;53.15
11395;BME280;5753;54.402;10.220;2023-01-31T00:33:39;101490.28;;;11.19;52.74
11395;BME280;5753;54.402;10.220;2023-01-31T00:36:07;101495.22;;;10.76;53.41
11395;BME280;5753;54.402;10.220;2023-01-31T00:38:34;101493.91;;;10.27;53.72
11395;BME280;5753;54.402;10.220;2023-01-31T00:41:00;101514.22;;;10.18;54.37
11395;BME280;5753;54.402;10.220;2023-01-31T00:43:27;101511.59;;;11.47;51.12
11395;BME280;5753;54.402;10.220;2023-01-31T00:45:53;101516.81;;;10.18;53.42
11395;BME280;5753;54.402;10.220;2023-01-31T00:48:19;101528.19;;;10.54;53.58
11395;BME280;5753;54.402;10.220;2023-01-31T00:50:46;101534.00;;;10.47;54.09
11395;BME280;5753;54.402;10.220;2023-01-31T00:53:12;101540.44;;;10.33;54.26
11395;BME280;5753;54.402;10.220;2023-01-31T00:55:38;101542.97;;;10.31;54.17
11395;BME280;5753;54.402;10.220;2023-01-31T00:58:04;101548.06;;;10.28;54.04
11395;BME280;5753;54.402;10.220;2023-01-31T01:00:31;101540.28;;;10.90;52.64
11395;BME280;5753;54.402;10.220;2023-01-31T01:02:57;101534.16;;;11.55;50.84
11395;BME280;5753;54.402;10.220;2023-01-31T01:05:23;101537.06;;;12.08;49.46
11395;BME280;5753;54.402;10.220;2023-01-31T01:07:49;101526.22;;;11.84;49.14
11395;BME280;5753;54.402;10.220;2023-01-31T01:10:16;101542.00;;;9.69;54.27
11395;BME280;5753;54.402;10.220;2023-01-31T01:12:42;101526.81;;;10.68;52.27
11395;BME280;5753;54.402;10.220;2023-01-31T01:15:08;101526.41;;;11.55;50.55
11395;BME280;5753;54.402;10.220;2023-01-31T01:17:35;101526.06;;;11.06;51.07
11395;BME280;5753;54.402;10.220;2023-01-31T01:20:01;101534.75;;;11.44;50.15
11395;BME280;5753;54.402;10.220;2023-01-31T01:22:29;101543.44;;;10.80;51.63
11395;BME280;5753;54.402;10.220;2023-01-31T01:24:56;101552.25;;;10.88;51.42
11395;BME280;5753;54.402;10.220;2023-01-31T01:27:22;101558.19;;;10.52;52.03
11395;BME280;5753;54.402;10.220;2023-01-31T01:29:48;101558.75;;;9.57;54.53
11395;BME280;5753;54.402;10.220;2023-01-31T01:32:14;101549.72;;;10.56;51.84
11395;BME280;5753;54.402;10.220;2023-01-31T01:34:41;101558.78;;;10.14;52.71
11395;BME280;5753;54.402;10.220;2023-01-31T01:37:08;101564.47;;;10.62;51.78
11395;BME280;5753;54.402;10.220;2023-01-31T01:39:46;101565.19;;;11.94;49.28
11395;BME280;5753;54.402;10.220;2023-01-31T01:42:16;101554.72;;;12.29;48.66
11395;BME280;5753;54.402;10.220;2023-01-31T01:44:53;101556.13;;;11.38;51.38
11395;BME280;5753;54.402;10.220;2023-01-31T01:52:42;101546.53;;;11.70;50.57
11395;BME280;5753;54.402;10.220;2023-01-31T01:55:16;101557.31;;;10.85;51.74
11395;BME280;5753;54.402;10.220;2023-01-31T01:57:45;101563.25;;;10.81;51.99
11395;BME280;5753;54.402;10.220;2023-01-31T02:00:19;101564.56;;;10.98;51.77
11395;BME280;5753;54.402;10.220;2023-01-31T02:02:47;101559.72;;;11.10;51.89
11395;BME280;5753;54.402;10.220;2023-01-31T02:05:16;101558.38;;;11.60;50.58
11395;BME280;5753;54.402;10.220;2023-01-31T02:07:44;101565.09;;;11.90;49.84
11395;BME280;5753;54.402;10.220;2023-01-31T02:10:26;101566.56;;;11.43;51.00
11395;BME280;5753;54.402;10.220;2023-01-31T02:12:53;101568.41;;;12.25;48.68
11395;BME280;5753;54.402;10.220;2023-01-31T02:15:21;101566.69;;;12.24;48.08
11395;BME280;5753;54.402;10.220;2023-01-31T02:17:47;101579.06;;;11.62;50.05
11395;BME280;5753;54.402;10.220;2023-01-31T02:43:24;101588.06;;;9.89;54.83
11395;BME280;5753;54.402;10.220;2023-01-31T02:46:06;101577.41;;;9.50;56.11
11395;BME280;5753;54.402;10.220;2023-01-31T02:51:36;101577.94;;;9.66;56.50
11395;BME280;5753;54.402;10.220;2023-01-31T02:54:20;101561.91;;;10.32;54.67
11395;BME280;5753;54.402;10.220;2023-01-31T02:57:10;101564.38;;;9.72;55.66
11395;BME280;5753;54.402;10.220;2023-01-31T02:59:37;101562.34;;;9.90;55.82
11395;BME280;5753;54.402;10.220;2023-01-31T03:02:04;101566.53;;;9.58;56.49
11395;BME280;5753;54.402;10.220;2023-01-31T03:04:32;101562.84;;;9.50;56.63
11395;BME280;5753;54.402;10.220;2023-01-31T03:13:12;101547.84;;;10.21;54.56
11395;BME280;5753;54.402;10.220;2023-01-31T03:18:29;101555.84;;;10.01;55.70
11395;BME280;5753;54.402;10.220;2023-01-31T03:21:09;101555.75;;;9.98;55.44
11395;BME280;5753;54.402;10.220;2023-01-31T03:23:41;101552.63;;;11.36;52.29
11395;BME280;5753;54.402;10.220;2023-01-31T03:26:09;101551.13;;;10.78;54.76
11395;BME280;5753;54.402;10.220;2023-01-31T03:28:38;101550.44;;;11.53;51.43
11395;BME280;5753;54.402;10.220;2023-01-31T03:31:16;101559.59;;;10.41;54.08
11395;BME280;5753;54.402;10.220;2023-01-31T03:33:56;101549.78;;;11.25;52.10
11395;BME280;5753;54.402;10.220;2023-01-31T03:46:52;101538.00;;;11.74;51.88
11395;BME280;5753;54.402;10.220;2023-01-31T03:49:24;101544.41;;;10.83;53.61
11395;BME280;5753;54.402;10.220;2023-01-31T03:51:56;101541.38;;;10.66;54.56
11395;BME280;5753;54.402;10.220;2023-01-31T03:54:29;101534.66;;;11.04;54.43
11395;BME280;5753;54.402;10.220;2023-01-31T03:57:01;101535.38;;;9.49;58.21
11395;BME280;5753;54.402;10.220;2023-01-31T03:59:34;101540.97;;;9.37;58.43
11395;BME280;5753;54.402;10.220;2023-01-31T04:02:05;101539.28;;;9.11;61.87
11395;BME280;5753;54.402;10.220;2023-01-31T04:05:19;101539.06;;;10.16;59.19
11395;BME280;5753;54.402;10.220;2023-01-31T04:07:47;101538.03;;;11.37;55.19
11395;BME280;5753;54.402;10.220;2023-01-31T04:10:18;101538.56;;;9.97;58.77
11395;BME280;5753;54.402;10.220;2023-01-31T04:12:45;101538.91;;;10.09;58.35
11395;BME280;5753;54.402;10.220;2023-01-31T04:15:12;101530.84;;;11.25;55.64
11395;BME280;5753;54.402;10.220;2023-01-31T04:17:38;101526.41;;;10.22;59.00
11395;BME280;5753;54.402;10.220;2023-01-31T04:20:05;101526.69;;;11.31;56.08
11395;BME280;5753;54.402;10.220;2023-01-31T04:22:32;101525.28;;;11.44;55.80
11395;BME280;5753;54.402;10.220;2023-01-31T04:24:58;101518.16;;;12.54;52.56
11395;BME280;5753;54.402;10.220;2023-01-31T04:27:24;101525.53;;;10.21;58.13
11395;BME280;5753;54.402;10.220;2023-01-31T04:29:50;101504.41;;;10.99;57.52
11395;BME280;5753;54.402;10.220;2023-01-31T04:32:17;101502.19;;;10.17;58.54
11395;BME280;5753;54.402;10.220;2023-01-31T04:34:43;101522.88;;;9.07;62.47
11395;BME280;5753;54.402;10.220;2023-01-31T04:37:09;101521.03;;;10.16;59.69
11395;BME280;5753;54.402;10.220;2023-01-31T04:39:35;101528.63;;;9.00;63.66
11395;BME280;5753;54.402;10.220;2023-01-31T04:42:01;101521.34;;;10.56;60.14
11395;BME280;5753;54.402;10.220;2023-01-31T04:44:28;101539.38;;;9.68;61.93
11395;BME280;5753;54.402;10.220;2023-01-31T04:46:54;101528.34;;;10.60;60.09
11395;BME280;5753;54.402;10.220;2023-01-31T04:49:20;101538.25;;;10.17;61.89
11395;BME280;5753;54.402;10.220;2023-01-31T04:51:46;101544.38;;;10.50;58.63
11395;BME280;5753;54.402;10.220;2023-01-31T04:54:12;101542.81;;;10.25;60.96
11395;BME280;5753;54.402;10.220;2023-01-31T04:56:39;101546.91;;;9.62;62.57
11395;BME280;5753;54.402;10.220;2023-01-31T04:59:05;101540.56;;;10.07;63.84
11395;BME280;5753;54.402;10.220;2023-01-31T05:01:31;101534.22;;;11.22;59.28
11395;BME280;5753;54.402;10.220;2023-01-31T05:03:57;101530.22;;;10.99;59.82
11395;BME280;5753;54.402;10.220;2023-01-31T05:06:23;101525.44;;;10.81;60.15
11395;BME280;5753;54.402;10.220;2023-01-31T05:08:49;101517.84;;;11.94;57.50
11395;BME280;5753;54.402;10.220;2023-01-31T05:11:19;101507.72;;;12.48;54.78
11395;BME280;5753;54.402;10.220;2023-01-31T05:13:45;101521.44;;;12.44;55.32
11395;BME280;5753;54.402;10.220;2023-01-31T05:16:13;101513.69;;;12.44;55.12
11395;BME280;5753;54.402;10.220;2023-01-31T05:18:39;101519.31;;;12.25;56.14
11395;BME280;5753;54.402;10.220;2023-01-31T05:21:06;101506.38;;;12.25;55.74
11395;BME280;5753;54.402;10.220;2023-01-31T05:23:33;101512.34;;;11.80;56.78
11395;BME280;5753;54.402;10.220;2023-01-31T05:25:59;101503.00;;;11.85;56.55
11395;BME280;5753;54.402;10.220;2023-01-31T05:28:26;101503.97;;;11.90;56.66
11395;BME280;5753;54.402;10.220;2023-01-31T05:30:53;101492.16;;;12.45;54.93
11395;BME280;5753;54.402;10.220;2023-01-31T05:33:19;101492.38;;;11.73;55.88
11395;BME280;5753;54.402;10.220;2023-01-31T05:35:47;101496.94;;;12.27;55.46
11395;BME280;5753;54.402;10.220;2023-01-31T05:38:13;101496.25;;;11.54;56.87
11395;BME280;5753;54.402;10.220;2023-01-31T05:40:39;101486.50;;;11.79;57.65
11395;BME280;5753;54.402;10.220;2023-01-31T05:43:06;101482.84;;;11.71;58.15
11395;BME280;5753;54.402;10.220;2023-01-31T05:45:32;101483.72;;;11.71;58.15
11395;BME280;5753;54.402;10.220;2023-01-31T05:47:59;101487.78;;;11.22;60.41
11395;BME280;5753;54.402;10.220;2023-01-31T05:50:25;101490.53;;;11.30;59.17
11395;BME280;5753;54.402;10.220;2023-01-31T05:53:01;101471.06;;;12.72;55.71
11395;BME280;5753;54.402;10.220;2023-01-31T05:55:30;101474.53;;;11.45;58.92
11395;BME280;5753;54.402;10.220;2023-01-31T05:57:56;101478.25;;;10.85;60.64
11395;BME280;5753;54.402;10.220;2023-01-31T06:00:23;101460.50;;;12.13;57.98
11395;BME280;5753;54.402;10.220;2023-01-31T06:02:49;101458.63;;;12.50;57.37
11395;BME280;5753;54.402;10.220;2023-01-31T06:05:16;101461.59;;;13.24;55.69
11395;BME280;5753;54.402;10.220;2023-01-31T06:07:42;101447.16;;;12.84;55.97
11395;BME280;5753;54.402;10.220;2023-01-31T06:10:11;101453.66;;;12.62;57.22
11395;BME280;5753;54.402;10.220;2023-01-31T06:12:37;101459.56;;;11.69;59.59
11395;BME280;5753;54.402;10.220;2023-01-31T06:15:04;101449.84;;;11.96;58.96
11395;BME280;5753;54.402;10.220;2023-01-31T06:17:30;101440.94;;;12.26;58.54
11395;BME280;5753;54.402;10.220;2023-01-31T06:19:56;101440.28;;;11.52;61.26
11395;BME280;5753;54.402;10.220;2023-01-31T06:22:22;101437.06;;;11.24;61.69
11395;BME280;5753;54.402;10.220;2023-01-31T06:24:48;101427.16;;;10.69;63.96
11395;BME280;5753;54.402;10.220;2023-01-31T06:27:15;101430.06;;;11.58;59.91
11395;BME280;5753;54.402;10.220;2023-01-31T06:29:41;101434.69;;;12.15;58.09
11395;BME280;5753;54.402;10.220;2023-01-31T06:32:08;101418.06;;;11.60;60.26
11395;BME280;5753;54.402;10.220;2023-01-31T06:34:35;101416.59;;;12.15;58.76
11395;BME280;5753;54.402;10.220;2023-01-31T06:37:01;101420.44;;;11.49;59.93
11395;BME280;5753;54.402;10.220;2023-01-31T06:39:27;101422.72;;;12.20;58.56
11395;BME280;5753;54.402;10.220;2023-01-31T06:41:54;101417.00;;;11.89;58.13
11395;BME280;5753;54.402;10.220;2023-01-31T06:44:20;101430.66;;;11.07;61.39
11395;BME280;5753;54.402;10.220;2023-01-31T06:46:46;101424.97;;;10.86;62.31
11395;BME280;5753;54.402;10.220;2023-01-31T06:49:12;101418.66;;;12.81;57.27
11395;BME280;5753;54.402;10.220;2023-01-31T06:51:38;101416.53;;;12.10;58.01
11395;BME280;5753;54.402;10.220;2023-01-31T06:54:05;101412.72;;;13.47;55.38
11395;BME280;5753;54.402;10.220;2023-01-31T06:56:31;101407.66;;;11.96;58.23
11395;BME280;5753;54.402;10.220;2023-01-31T06:58:57;101404.75;;;12.76;56.62
11395;BME280;5753;54.402;10.220;2023-01-31T07:01:23;101406.56;;;12.80;56.08
11395;BME280;5753;54.402;10.220;2023-01-31T07:03:51;101401.88;;;12.59;56.39
11395;BME280;5753;54.402;10.220;2023-01-31T07:06:17;101398.84;;;12.83;56.80
11395;BME280;5753;54.402;10.220;2023-01-31T07:08:45;101393.97;;;12.48;57.88
11395;BME280;5753;54.402;10.220;2023-01-31T07:11:11;101381.94;;;12.02;59.71
11395;BME280;5753;54.402;10.220;2023-01-31T07:13:38;101378.88;;;12.76;57.52
11395;BME280;5753;54.402;10.220;2023-01-31T07:16:04;101379.22;;;11.96;59.62
11395;BME280;5753;54.402;10.220;2023-01-31T07:18:30;101365.44;;;12.98;57.44
11395;BME280;5753;54.402;10.220;2023-01-31T07:20:56;101368.88;;;11.94;60.31
11395;BME280;5753;54.402;10.220;2023-01-31T07:23:23;101361.91;;;12.39;60.23
11395;BME280;5753;54.402;10.220;2023-01-31T07:25:49;101355.16;;;11.98;59.83
11395;BME280;5753;54.402;10.220;2023-01-31T07:28:15;101350.19;;;12.09;59.92
11395;BME280;5753;54.402;10.220;2023-01-31T07:30:41;101339.69;;;12.00;60.11
11395;BME280;5753;54.402;10.220;2023-01-31T07:33:09;101330.94;;;11.50;62.88
11395;BME280;5753;54.402;10.220;2023-01-31T07:35:35;101324.72;;;12.86;59.75
11395;BME280;5753;54.402;10.220;2023-01-31T07:38:02;101319.91;;;12.53;59.37
11395;BME280;5753;54.402;10.220;2023-01-31T07:40:28;101311.03;;;12.36;60.19
11395;BME280;5753;54.402;10.220;2023-01-31T07:43:00;101312.41;;;12.70;60.90
11395;BME280;5753;54.402;10.220;2023-01-31T07:45:26;101308.19;;;12.22;61.60
11395;BME280;5753;54.402;10.220;2023-01-31T07:47:55;101303.19;;;12.30;60.33
11395;BME280;5753;54.402;10.220;2023-01-31T07:50:22;101305.25;;;11.56;63.45
11395;BME280;5753;54.402;10.220;2023-01-31T07:52:48;101291.84;;;11.75;64.71
11395;BME280;5753;54.402;10.220;2023-01-31T07:55:15;101285.28;;;12.42;61.94
11395;BME280;5753;54.402;10.220;2023-01-31T07:57:41;101280.75;;;11.79;64.23
11395;BME280;5753;54.402;10.220;2023-01-31T08:00:08;101274.22;;;12.52;60.94
11395;BME280;5753;54.402;10.220;2023-01-31T08:02:54;101267.59;;;12.71;62.62
11395;BME280;5753;54.402;10.220;2023-01-31T08:05:39;101261.16;;;12.43;62.90
11395;BME280;5753;54.402;10.220;2023-01-31T08:08:05;101256.19;;;13.20;60.41
11395;BME280;5753;54.402;10.220;2023-01-31T08:10:37;101249.47;;;12.71;62.46
11395;BME280;5753;54.402;10.220;2023-01-31T08:13:04;101235.72;;;12.74;62.29
11395;BME280;5753;54.402;10.220;2023-01-31T08:15:31;101240.19;;;12.25;64.11
11395;BME280;5753;54.402;10.220;2023-01-31T08:17:57;101231.59;;;12.26;63.74
11395;BME280;5753;54.402;10.220;2023-01-31T08:20:24;101238.44;;;11.74;66.90
11395;BME280;5753;54.402;10.220;2023-01-31T08:22:50;101225.53;;;12.24;65.16
11395;BME280;5753;54.402;10.220;2023-01-31T08:25:16;101246.41;;;12.36;64.37
11395;BME280;5753;54.402;10.220;2023-01-31T08:27:42;101235.34;;;12.46;64.94
11395;BME280;5753;54.402;10.220;2023-01-31T08:30:09;101225.28;;;11.59;71.31
11395;BME280;5753;54.402;10.220;2023-01-31T08:32:35;101235.88;;;10.87;72.35
11395;BME280;5753;54.402;10.220;2023-01-31T08:35:02;101225.66;;;11.79;70.49
11395;BME280;5753;54.402;10.220;2023-01-31T08:37:28;101224.47;;;11.61;70.69
11395;BME280;5753;54.402;10.220;2023-01-31T08:39:54;101210.94;;;12.29;67.27
11395;BME280;5753;54.402;10.220;2023-01-31T08:42:20;101206.84;;;11.84;67.75
11395;BME280;5753;54.402;10.220;2023-01-31T08:44:46;101204.63;;;11.14;75.41
11395;BME280;5753;54.402;10.220;2023-01-31T08:47:12;101192.91;;;11.78;68.72
11395;BME280;5753;54.402;10.220;2023-01-31T08:49:39;101185.31;;;12.41;67.39
11395;BME280;5753;54.402;10.220;2023-01-31T08:52:05;101178.56;;;11.93;68.94
11395;BME280;5753;54.402;10.220;2023-01-31T08:54:31;101166.59;;;11.98;69.62
11395;BME280;5753;54.402;10.220;2023-01-31T08:56:57;101157.09;;;11.97;68.66
11395;BME280;5753;54.402;10.220;2023-01-31T08:59:23;101163.88;;;11.89;68.59
11395;BME280;5753;54.402;10.220;2023-01-31T09:01:50;101156.19;;;12.56;69.56
11395;BME280;5753;54.402;10.220;2023-01-31T09:04:16;101148.66;;;12.74;67.33
11395;BME280;5753;54.402;10.220;2023-01-31T09:06:42;101149.41;;;12.66;65.69
11395;BME280;5753;54.402;10.220;2023-01-31T09:09:08;101147.69;;;12.03;69.34
11395;BME280;5753;54.402;10.220;2023-01-31T09:11:35;101153.03;;;11.60;71.10
11395;BME280;5753;54.402;10.220;2023-01-31T09:14:01;101145.06;;;11.00;77.55
11395;BME280;5753;54.402;10.220;2023-01-31T09:16:27;101145.75;;;11.88;71.28
11395;BME280;5753;54.402;10.220;2023-01-31T09:18:54;101136.72;;;12.19;70.50
11395;BME280;5753;54.402;10.220;2023-01-31T09:21:21;101132.97;;;11.95;71.21
11395;BME280;5753;54.402;10.220;2023-01-31T09:23:55;101119.75;;;12.36;69.91
11395;BME280;5753;54.402;10.220;2023-01-31T09:26:21;101124.63;;;11.62;73.07
11395;BME280;5753;54.402;10.220;2023-01-31T09:28:47;101114.94;;;12.67;70.42
11395;BME280;5753;54.402;10.220;2023-01-31T09:31:17;101124.41;;;10.55;74.49
11395;BME280;5753;54.402;10.220;2023-01-31T09:33:46;101113.88;;;11.86;72.75
11395;BME280;5753;54.402;10.220;2023-01-31T09:36:18;101108.97;;;11.51;76.23
11395;BME280;5753;54.402;10.220;2023-01-31T09:38:45;101108.56;;;11.78;75.49
11395;BME280;5753;54.402;10.220;2023-01-31T09:41:29;101091.25;;;11.74;76.49
11395;BME280;5753;54.402;10.220;2023-01-31T09:44:04;101086.84;;;12.26;75.54
11395;BME280;5753;54.402;10.220;2023-01-31T09:46:35;101087.34;;;11.43;77.75
11395;BME280;5753;54.402;10.220;2023-01-31T09:49:06;101073.19;;;11.21;79.28
11395;BME280;5753;54.402;10.220;2023-01-31T09:51:34;101063.47;;;11.58;75.37
11395;BME280;5753;54.402;10.220;2023-01-31T09:54:02;101056.22;;;11.87;74.61
11395;BME280;5753;54.402;10.220;2023-01-31T09:56:45;101048.91;;;12.22;74.20
11395;BME280;5753;54.402;10.220;2023-01-31T10:02:29;101054.28;;;11.22;80.29
11395;BME280;5753;54.402;10.220;2023-01-31T10:08:08;101033.88;;;12.65;75.02
11395;BME280;5753;54.402;10.220;2023-01-31T10:10:47;101039.00;;;11.34;81.36
11395;BME280;5753;54.402;10.220;2023-01-31T10:15:51;101005.72;;;12.90;73.49
11395;BME280;5753;54.402;10.220;2023-01-31T10:18:29;101011.63;;;11.43;79.91
11395;BME280;5753;54.402;10.220;2023-01-31T10:21:10;101003.72;;;11.89;79.30
11395;BME280;5753;54.402;10.220;2023-01-31T10:23:58;101002.56;;;11.13;83.14
11395;BME280;5753;54.402;10.220;2023-01-31T10:26:30;101009.34;;;10.58;83.12
11395;BME280;5753;54.402;10.220;2023-01-31T10:31:54;100979.22;;;11.63;86.76
11395;BME280;5753;54.402;10.220;2023-01-31T10:34:46;100987.91;;;11.70;82.10
11395;BME280;5753;54.402;10.220;2023-01-31T10:37:27;100975.84;;;11.10;87.29
11395;BME280;5753;54.402;10.220;2023-01-31T10:40:00;100967.94;;;10.99;89.48
11395;BME280;5753;54.402;10.220;2023-01-31T10:42:37;100980.53;;;11.94;83.65
11395;BME280;5753;54.402;10.220;2023-01-31T10:47:46;100959.00;;;12.75;76.76
11395;BME280;5753;54.402;10.220;2023-01-31T10:50:37;100975.47;;;11.40;83.65
11395;BME280;5753;54.402;10.220;2023-01-31T10:58:44;100936.66;;;11.95;86.38
11395;BME280;5753;54.402;10.220;2023-01-31T11:01:11;100936.44;;;11.80;87.57
11395;BME280;5753;54.402;10.220;2023-01-31T11:03:42;100943.16;;;11.69;86.93
11395;BME280;5753;54.402;10.220;2023-01-31T11:06:11;100942.03;;;10.91;91.44
11395;BME280;5753;54.402;10.220;2023-01-31T11:08:56;100930.66;;;12.00;86.93
11395;BME280;5753;54.402;10.220;2023-01-31T11:11:25;100918.09;;;12.30;88.45
11395;BME280;5753;54.402;10.220;2023-01-31T11:14:04;100924.28;;;10.58;95.34
11395;BME280;5753;54.402;10.220;2023-01-31T11:16:36;100910.59;;;11.80;92.83
11395;BME280;5753;54.402;10.220;2023-01-31T11:19:18;100927.81;;;11.78;91.80
11395;BME280;5753;54.402;10.220;2023-01-31T11:21:50;100928.28;;;9.55;100.00
11395;BME280;5753;54.402;10.220;2023-01-31T11:24:20;100919.41;;;10.75;100.00
11395;BME280;5753;54.402;10.220;2023-01-31T11:27:19;100919.66;;;12.19;92.90
11395;BME280;5753;54.402;10.220;2023-01-31T11:29:49;100924.03;;;10.43;100.00
11395;BME280;5753;54.402;10.220;2023-01-31T11:32:25;100906.59;;;11.35;97.90
11395;BME280;5753;54.402;10.220;2023-01-31T11:35:04;100911.59;;;10.21;100.00
11395;BME280;5753;54.402;10.220;2023-01-31T11:37:32;100902.28;;;11.36;99.99
11395;BME280;5753;54.402;10.220;2023-01-31T11:40:18;100929.53;;;11.17;100.00
11395;BME280;5753;54.402;10.220;2023-01-31T11:42:55;100908.75;;;11.07;100.00
11395;BME280;5753;54.402;10.220;2023-01-31T11:45:29;100892.72;;;10.71;100.00
11395;BME280;5753;54.402;10.220;2023-01-31T11:47:58;100897.06;;;10.26;100.00
11395;BME280;5753;54.402;10.220;2023-01-31T11:50:36;100894.56;;;12.06;97.22
11395;BME280;5753;54.402;10.220;2023-01-31T11:53:17;100894.31;;;12.72;92.97
11395;BME280;5753;54.402;10.220;2023-01-31T11:55:46;100916.75;;;11.26;100.00
11395;BME280;5753;54.402;10.220;2023-01-31T11:58:32;100914.38;;;12.07;98.94
11395;BME280;5753;54.402;10.220;2023-01-31T12:01:22;100907.03;;;11.07;100.00
11395;BME280;5753;54.402;10.220;2023-01-31T12:03:59;100882.91;;;11.70;100.00
11395;BME280;5753;54.402;10.220;2023-01-31T12:08:56;100886.16;;;13.33;94.20
11395;BME280;5753;54.402;10.220;2023-01-31T12:11:34;100863.97;;;12.48;94.09
11395;BME280;5753;54.402;10.220;2023-01-31T12:14:13;100862.50;;;11.85;100.00
11395;BME280;5753;54.402;10.220;2023-01-31T12:16:40;100858.47;;;11.41;100.00
11395;BME280;5753;54.402;10.220;2023-01-31T12:37:25;100821.50;;;12.22;97.90
11395;BME280;5753;54.402;10.220;2023-01-31T12:43:16;100822.22;;;13.22;91.44
11395;BME280;5753;54.402;10.220;2023-01-31T13:02:07;100802.38;;;13.18;87.71
11395;BME280;5753;54.402;10.220;2023-01-31T13:04:52;100790.06;;;12.78;91.77
11395;BME280;5753;54.402;10.220;2023-01-31T13:07:25;100783.34;;;13.16;89.87
11395;BME280;5753;54.402;10.220;2023-01-31T13:09:53;100774.00;;;13.46;88.35
11395;BME280;5753;54.402;10.220;2023-01-31T13:12:26;100753.38;;;12.11;96.28
11395;BME280;5753;54.402;10.220;2023-01-31T13:15:06;100789.75;;;11.49;99.57
11395;BME280;5753;54.402;10.220;2023-01-31T13:17:36;100765.50;;;12.22;93.46
11395;BME280;5753;54.402;10.220;2023-01-31T13:20:21;100753.13;;;13.06;87.90
11395;BME280;5753;54.402;10.220;2023-01-31T13:23:18;100741.19;;;13.39;85.89
11395;BME280;5753;54.402;10.220;2023-01-31T13:26:10;100738.31;;;12.76;86.68
11395;BME280;5753;54.402;10.220;2023-01-31T13:28:59;100731.63;;;11.84;93.00
11395;BME280;5753;54.402;10.220;2023-01-31T13:31:34;100724.41;;;12.54;88.88
11395;BME280;5753;54.402;10.220;2023-01-31T13:34:12;100718.41;;;12.61;88.49
11395;BME280;5753;54.402;10.220;2023-01-31T13:36:50;100702.41;;;13.65;83.60
11395;BME280;5753;54.402;10.220;2023-01-31T13:39:32;100701.56;;;13.76;77.58
11395;BME280;5753;54.402;10.220;2023-01-31T13:42:00;100689.94;;;12.58;88.29
11395;BME280;5753;54.402;10.220;2023-01-31T13:44:27;100709.50;;;12.17;90.21
11395;BME280;5753;54.402;10.220;2023-01-31T13:50:00;100689.44;;;13.71;79.40
11395;BME280;5753;54.402;10.220;2023-01-31T13:52:32;100679.09;;;13.88;79.91
11395;BME280;5753;54.402;10.220;2023-01-31T13:55:09;100701.56;;;13.79;79.64
11395;BME280;5753;54.402;10.220;2023-01-31T13:57:42;100713.59;;;13.47;79.24
11395;BME280;5753;54.402;10.220;2023-01-31T14:00:36;100725.13;;;12.32;85.93
11395;BME280;5753;54.402;10.220;2023-01-31T14:03:08;100690.31;;;14.06;73.75
11395;BME280;5753;54.402;10.220;2023-01-31T14:10:56;100707.53;;;13.30;76.39
11395;BME280;5753;54.402;10.220;2023-01-31T14:13:37;100719.19;;;11.47;86.17
11395;BME280;5753;54.402;10.220;2023-01-31T14:16:32;100720.63;;;12.07;85.38
11395;BME280;5753;54.402;10.220;2023-01-31T14:18:51;100715.13;;;12.93;80.72
11395;BME280;5753;54.402;10.220;2023-01-31T14:23:57;100723.72;;;12.83;76.60
11395;BME280;5753;54.402;10.220;2023-01-31T14:29:24;100729.00;;;13.16;77.28
11395;BME280;5753;54.402;10.220;2023-01-31T14:31:53;100727.13;;;12.79;77.42
11395;BME280;5753;54.402;10.220;2023-01-31T14:34:26;100736.94;;;13.71;73.26
11395;BME280;5753;54.402;10.220;2023-01-31T14:37:16;100737.78;;;13.61;73.64
11395;BME280;5753;54.402;10.220;2023-01-31T14:58:22;100714.25;;;12.92;74.65
11395;BME280;5753;54.402;10.220;2023-01-31T15:00:55;100684.19;;;13.20;73.13
11395;BME280;5753;54.402;10.220;2023-01-31T15:03:50;100721.78;;;12.51;74.98
11395;BME280;5753;54.402;10.220;2023-01-31T15:06:31;100723.88;;;13.19;74.58
11395;BME280;5753;54.402;10.220;2023-01-31T15:09:26;100688.59;;;14.02;70.50
11395;BME280;5753;54.402;10.220;2023-01-31T15:11:54;100713.59;;;13.38;68.60
11395;BME280;5753;54.402;10.220;2023-01-31T15:14:35;100718.84;;;13.77;68.93
11395;BME280;5753;54.402;10.220;2023-01-31T15:17:15;100708.41;;;13.38;69.81
11395;BME280;5753;54.402;10.220;2023-01-31T15:19:53;100723.94;;;13.35;69.34
11395;BME280;5753;54.402;10.220;2023-01-31T15:22:23;100707.09;;;12.40;74.61
11395;BME280;5753;54.402;10.220;2023-01-31T15:24:54;100712.75;;;13.66;67.21
11395;BME280;5753;54.402;10.220;2023-01-31T15:27:32;100709.19;;;13.20;69.22
11395;BME280;5753;54.402;10.220;2023-01-31T15:33:34;100698.75;;;12.99;69.02
11395;BME280;5753;54.402;10.220;2023-01-31T15:38:32;100698.50;;;12.47;69.71
11395;BME280;5753;54.402;10.220;2023-01-31T15:43:32;100693.47;;;12.73;68.64